Time;durP1;ratioP1;P1;durP2;ratioP2;P2;SDS_P1;SDS_P2;PMS_P1;PMS_P2;Temp;Humidity;BMP_temperature;BMP_pressure;BME280_temperature;BME280_humidity;BME280_pressure;Samples;Min_cycle;Max_cycle;Signal;HPM_P1;HPM_P2
2023/12/27 00:00:30;;;;;;;5.13;1.80;;;24.30;99.90;;;;;;4992451;28;20640;-70
2023/12/27 00:02:59;;;;;;;4.37;1.90;;;24.30;99.90;;;;;;4992171;28;20645;-70
2023/12/27 00:05:27;;;;;;;3.50;2.13;;;24.30;99.90;;;;;;4991600;28;20195;-70
2023/12/27 00:07:54;;;;;;;8.90;2.17;;;24.40;99.90;;;;;;4992370;28;20233;-70
2023/12/27 00:10:22;;;;;;;3.37;1.90;;;24.40;99.90;;;;;;4992408;28;20194;-71
2023/12/27 00:12:50;;;;;;;5.43;2.00;;;24.30;99.90;;;;;;4991966;28;20182;-71
2023/12/27 00:15:18;;;;;;;5.27;1.97;;;24.20;99.90;;;;;;4992173;28;20183;-70
2023/12/27 00:17:45;;;;;;;5.53;2.33;;;24.20;99.90;;;;;;4991674;28;20186;-70
2023/12/27 00:20:13;;;;;;;4.30;1.77;;;24.20;99.90;;;;;;4992018;28;20237;-71
2023/12/27 00:22:41;;;;;;;7.03;1.67;;;24.20;99.90;;;;;;4974919;28;20194;-70
2023/12/27 00:25:09;;;;;;;3.43;1.87;;;24.10;99.90;;;;;;4992185;28;20227;-71
2023/12/27 00:27:36;;;;;;;5.40;2.07;;;24.10;99.90;;;;;;4972340;28;20259;-71
2023/12/27 00:30:04;;;;;;;3.60;2.10;;;24.10;99.90;;;;;;4972769;28;20179;-70
2023/12/27 00:32:33;;;;;;;8.43;2.70;;;24.10;99.90;;;;;;4972693;28;20700;-70
2023/12/27 00:35:01;;;;;;;5.47;2.17;;;24.10;99.90;;;;;;4979601;28;20265;-70
2023/12/27 00:37:28;;;;;;;5.93;1.90;;;24.20;99.90;;;;;;4974452;28;20690;-70
2023/12/27 00:39:55;;;;;;;4.70;2.00;;;24.40;99.90;;;;;;4992185;28;20233;-70
2023/12/27 00:42:23;;;;;;;3.57;2.00;;;24.70;99.90;;;;;;4991598;28;20183;-71
2023/12/27 00:44:51;;;;;;;7.90;2.20;;;24.80;99.90;;;;;;4991812;28;20713;-71
2023/12/27 00:47:18;;;;;;;3.13;1.90;;;25.00;99.90;;;;;;4991172;28;20186;-71
2023/12/27 00:49:46;;;;;;;5.77;1.67;;;25.30;99.90;;;;;;4991896;28;20257;-70
2023/12/27 00:52:13;;;;;;;4.63;1.50;;;26.50;99.90;;;;;;4974981;28;20224;-70
2023/12/27 00:54:41;;;;;;;5.70;1.87;;;28.30;99.90;;;;;;4991993;28;20191;-70
2023/12/27 00:57:08;;;;;;;2.90;1.77;;;29.40;99.90;;;;;;4991044;28;20327;-71
2023/12/27 00:59:35;;;;;;;5.30;1.90;;;30.30;99.90;;;;;;4991913;28;20174;-70
2023/12/27 01:02:03;;;;;;;5.63;1.63;;;30.30;99.90;;;;;;4991946;28;20183;-70
2023/12/27 01:04:32;;;;;;;6.80;1.50;;;30.20;99.90;;;;;;4991251;28;20198;-70
2023/12/27 01:06:59;;;;;;;2.50;1.23;;;30.80;99.90;;;;;;4991369;28;20648;-70
2023/12/27 01:09:26;;;;;;;6.28;1.48;;;31.50;99.90;;;;;;4991600;28;20568;-70
2023/12/27 01:11:54;;;;;;;3.00;1.92;;;32.30;99.90;;;;;;4990779;28;20564;-70
2023/12/27 01:14:21;;;;;;;6.45;1.67;;;31.70;99.90;;;;;;4991645;28;20247;-71
2023/12/27 01:16:48;;;;;;;5.80;2.08;;;31.30;99.90;;;;;;4994681;28;20179;-70
2023/12/27 01:19:16;;;;;;;5.25;1.75;;;31.40;99.90;;;;;;4994792;28;20182;-70
2023/12/27 01:21:43;;;;;;;4.40;1.90;;;30.70;99.90;;;;;;4995363;28;20186;-70
2023/12/27 01:24:10;;;;;;;8.10;1.60;;;29.60;99.90;;;;;;4995611;28;20182;-70
2023/12/27 01:26:37;;;;;;;4.07;1.33;;;30.10;99.90;;;;;;4994595;28;20191;-70
2023/12/27 01:29:05;;;;;;;4.25;1.70;;;29.60;99.90;;;;;;4995165;28;20218;-70
2023/12/27 01:31:32;;;;;;;5.03;1.80;;;29.20;99.90;;;;;;4995380;28;20266;-70
2023/12/27 01:33:59;;;;;;;4.90;1.90;;;28.80;99.90;;;;;;4994747;28;20657;-70
2023/12/27 01:36:27;;;;;;;6.50;1.70;;;28.30;99.90;;;;;;4995232;28;20640;-70
2023/12/27 01:38:54;;;;;;;6.20;2.20;;;28.30;99.90;;;;;;4994986;28;20190;-70
2023/12/27 01:41:21;;;;;;;4.83;2.23;;;28.30;99.90;;;;;;4994514;28;20171;-69
2023/12/27 01:43:49;;;;;;;3.80;1.63;;;28.50;99.90;;;;;;4995093;28;20182;-70
2023/12/27 01:46:16;;;;;;;4.83;1.80;;;28.20;99.90;;;;;;4994635;28;20179;-70
2023/12/27 01:48:44;;;;;;;3.17;1.47;;;29.10;99.90;;;;;;4994712;28;20204;-70
2023/12/27 01:51:13;;;;;;;3.25;1.70;;;30.40;99.90;;;;;;4994573;28;20190;-70
2023/12/27 01:53:41;;;;;;;4.00;1.60;;;30.30;99.90;;;;;;4994535;28;20274;-70
2023/12/27 01:56:09;;;;;;;5.43;1.73;;;29.70;99.90;;;;;;4994106;28;20191;-71
2023/12/27 01:58:36;;;;;;;5.33;1.57;;;29.60;99.90;;;;;;4994937;28;20183;-70
2023/12/27 02:01:04;;;;;;;3.57;1.47;;;29.80;99.90;;;;;;4994867;28;20178;-70
2023/12/27 02:03:31;;;;;;;6.43;1.80;;;29.50;99.90;;;;;;4994353;28;20182;-70
2023/12/27 02:06:00;;;;;;;5.80;1.67;;;29.30;99.90;;;;;;4994394;28;20696;-68
2023/12/27 02:08:28;;;;;;;4.70;1.80;;;29.00;99.90;;;;;;4994565;28;20226;-69
2023/12/27 02:10:56;;;;;;;6.67;1.80;;;28.60;99.90;;;;;;4994276;28;20178;-70
2023/12/27 02:13:23;;;;;;;6.53;2.10;;;28.60;99.90;;;;;;4994376;28;20193;-70
2023/12/27 02:15:51;;;;;;;5.57;1.87;;;28.70;99.90;;;;;;4994305;28;20241;-71
2023/12/27 02:18:19;;;;;;;5.73;1.90;;;29.70;99.90;;;;;;4994015;28;20190;-70
2023/12/27 02:20:47;;;;;;;4.87;1.70;;;29.90;99.90;;;;;;4994042;28;20214;-71
2023/12/27 02:23:19;;;;;;;7.00;1.90;;;29.20;99.90;;;;;;4994244;28;20226;-71
2023/12/27 02:25:48;;;;;;;5.13;1.80;;;28.70;99.90;;;;;;4993258;28;20179;-70
2023/12/27 02:28:15;;;;;;;6.47;2.10;;;28.40;99.90;;;;;;4994322;28;20218;-71
2023/12/27 02:30:42;;;;;;;3.93;1.70;;;28.00;99.90;;;;;;4994265;28;20277;-71
2023/12/27 02:33:10;;;;;;;3.97;1.90;;;27.80;99.90;;;;;;4993431;28;20198;-70
2023/12/27 02:35:37;;;;;;;5.63;1.80;;;27.50;99.90;;;;;;4993965;28;20213;-71
2023/12/27 02:38:04;;;;;;;9.43;2.13;;;27.30;99.90;;;;;;4993994;28;20174;-71
2023/12/27 02:40:32;;;;;;;2.90;1.70;;;27.10;99.90;;;;;;4993742;28;20274;-71
2023/12/27 02:42:59;;;;;;;4.57;1.70;;;26.80;99.90;;;;;;4994078;28;20174;-71
2023/12/27 02:45:26;;;;;;;8.13;2.13;;;26.70;99.90;;;;;;4993840;28;20178;-71
2023/12/27 02:47:53;;;;;;;2.80;1.80;;;26.60;99.90;;;;;;4993412;28;20292;-71
2023/12/27 02:50:21;;;;;;;5.23;1.80;;;26.50;99.90;;;;;;4993970;28;20191;-70
2023/12/27 02:52:48;;;;;;;4.07;1.87;;;26.30;99.90;;;;;;4993879;28;20197;-71
2023/12/27 02:55:16;;;;;;;3.10;1.00;;;25.90;99.90;;;;;;4992776;28;20183;-70
2023/12/27 02:57:43;;;;;;;4.57;0.80;;;24.20;99.90;;;;;;4993496;28;20232;-71
2023/12/27 03:00:11;;;;;;;5.30;1.13;;;22.30;99.90;;;;;;4993665;28;20185;-70
2023/12/27 03:02:38;;;;;;;5.73;1.37;;;21.10;99.90;;;;;;4993079;28;20182;-71
2023/12/27 03:05:08;;;;;;;5.80;1.53;;;20.70;99.90;;;;;;4993138;28;20246;-72
2023/12/27 03:07:35;;;;;;;5.50;1.70;;;20.50;99.90;;;;;;4993181;28;20185;-72
2023/12/27 03:10:03;;;;;;;8.23;1.87;;;20.50;99.90;;;;;;4992894;28;20257;-71
2023/12/27 03:12:31;;;;;;;10.33;2.23;;;20.50;99.90;;;;;;4993403;28;20237;-70
2023/12/27 03:14:58;;;;;;;4.60;1.30;;;20.30;99.90;;;;;;4992771;28;20189;-72
2023/12/27 03:17:25;;;;;;;3.00;1.00;;;20.30;99.90;;;;;;4992220;28;20185;-71
2023/12/27 03:19:53;;;;;;;2.77;0.90;;;20.00;99.90;;;;;;4993040;28;20191;-70
2023/12/27 03:22:20;;;;;;;5.97;1.40;;;19.90;99.90;;;;;;4993290;28;20672;-70
2023/12/27 03:24:47;;;;;;;4.70;1.40;;;19.90;99.90;;;;;;4992426;28;20182;-71
2023/12/27 03:27:15;;;;;;;3.30;1.40;;;19.80;99.90;;;;;;4992838;28;20186;-70
2023/12/27 03:29:42;;;;;;;3.03;0.90;;;19.90;99.90;;;;;;4992515;28;20574;-71
2023/12/27 03:32:09;;;;;;;3.40;1.00;;;19.70;99.90;;;;;;4992594;28;20173;-72
2023/12/27 03:34:38;;;;;;;3.50;1.03;;;19.80;99.90;;;;;;4992875;28;20179;-71
2023/12/27 03:37:05;;;;;;;4.17;0.97;;;19.70;99.90;;;;;;4992752;28;20176;-71
2023/12/27 03:39:33;;;;;;;3.00;1.20;;;19.80;99.90;;;;;;4991831;28;20544;-71
2023/12/27 03:42:00;;;;;;;1.87;1.33;;;19.70;99.90;;;;;;4992708;28;20680;-71
2023/12/27 03:44:27;;;;;;;2.97;1.10;;;19.60;99.90;;;;;;4992984;28;20176;-72
2023/12/27 03:46:55;;;;;;;3.27;1.20;;;19.80;99.90;;;;;;4974796;28;20183;-72
2023/12/27 03:49:22;;;;;;;1.00;0.90;;;19.80;99.90;;;;;;4992474;28;20213;-71
2023/12/27 03:51:49;;;;;;;2.30;0.90;;;19.90;99.90;;;;;;4975309;28;20715;-72
2023/12/27 03:54:17;;;;;;;1.77;0.83;;;19.80;99.90;;;;;;4992052;28;20262;-72
2023/12/27 03:56:47;;;;;;;3.87;0.90;;;20.00;99.90;;;;;;4974979;28;20242;-72
2023/12/27 03:59:15;;;;;;;4.27;1.33;;;20.00;99.90;;;;;;4992399;28;20176;-72
2023/12/27 04:01:42;;;;;;;4.37;1.10;;;20.20;99.90;;;;;;4992217;28;20181;-72
2023/12/27 04:04:10;;;;;;;2.27;0.93;;;20.20;99.90;;;;;;4992582;28;20188;-71
2023/12/27 04:06:37;;;;;;;1.67;0.87;;;20.70;99.90;;;;;;4992340;28;20520;-71
2023/12/27 04:09:04;;;;;;;1.30;0.83;;;20.80;99.90;;;;;;4992056;28;20548;-72
2023/12/27 04:11:32;;;;;;;1.47;1.20;;;21.20;99.90;;;;;;4992690;28;20220;-72
2023/12/27 04:13:59;;;;;;;3.10;0.80;;;22.30;99.90;;;;;;4992574;28;20181;-71
2023/12/27 04:16:27;;;;;;;1.80;0.90;;;22.70;99.90;;;;;;4992918;28;20209;-71
2023/12/27 04:18:54;;;;;;;3.80;0.90;;;23.00;99.90;;;;;;4996376;28;20825;-71
2023/12/27 04:21:21;;;;;;;1.93;0.90;;;23.00;99.90;;;;;;4992683;28;20216;-71
2023/12/27 04:23:49;;;;;;;3.57;0.93;;;22.90;99.90;;;;;;4991967;28;20189;-72
2023/12/27 04:26:16;;;;;;;1.47;0.73;;;23.20;99.90;;;;;;4992336;28;20187;-72
2023/12/27 04:28:43;;;;;;;2.83;0.80;;;23.20;99.90;;;;;;4992254;28;20218;-71
2023/12/27 04:31:10;;;;;;;7.03;0.87;;;23.50;99.90;;;;;;4991611;28;20174;-73
2023/12/27 04:33:38;;;;;;;2.47;0.90;;;23.70;99.90;;;;;;4992209;28;20186;-71
2023/12/27 04:36:05;;;;;;;0.83;0.60;;;24.10;99.90;;;;;;4991997;28;20186;-71
2023/12/27 04:38:33;;;;;;;2.40;0.80;;;23.80;99.90;;;;;;4991794;28;20185;-72
2023/12/27 04:41:06;;;;;;;2.60;1.30;;;23.10;99.90;;;;;;4992181;28;20186;-73
2023/12/27 04:43:33;;;;;;;0.80;0.70;;;23.00;99.90;;;;;;4992187;28;20640;-70
2023/12/27 04:46:03;;;;;;;2.60;1.00;;;23.10;99.90;;;;;;4991705;28;20191;-70
2023/12/27 04:48:30;;;;;;;5.00;0.73;;;23.10;99.90;;;;;;4992268;28;20261;-71
2023/12/27 04:50:57;;;;;;;3.27;0.80;;;23.10;99.90;;;;;;4996119;28;20178;-72
2023/12/27 04:53:25;;;;;;;1.67;0.93;;;23.20;99.90;;;;;;4995750;28;20182;-73
2023/12/27 04:55:53;;;;;;;4.70;0.80;;;23.30;99.90;;;;;;4995849;28;20297;-71
2023/12/27 04:58:20;;;;;;;1.47;0.70;;;23.50;99.90;;;;;;4996001;28;20226;-72
2023/12/27 05:00:47;;;;;;;0.70;0.60;;;23.70;99.90;;;;;;4995575;28;20618;-71
2023/12/27 05:03:14;;;;;;;0.60;0.60;;;24.50;99.90;;;;;;4995525;28;20607;-72
2023/12/27 05:05:42;;;;;;;3.73;0.87;;;25.20;99.90;;;;;;4995646;28;20233;-72
2023/12/27 05:08:09;;;;;;;6.77;0.90;;;24.90;99.90;;;;;;4995301;28;20222;-73
2023/12/27 05:10:36;;;;;;;8.30;1.10;;;24.80;99.90;;;;;;4995935;28;20174;-72
2023/12/27 05:13:04;;;;;;;2.47;0.87;;;24.70;99.90;;;;;;4995864;28;20663;-72
2023/12/27 05:15:31;;;;;;;2.90;0.90;;;24.40;99.90;;;;;;4994584;28;20195;-71
2023/12/27 05:17:58;;;;;;;2.63;1.07;;;24.10;99.90;;;;;;4995531;28;20278;-70
2023/12/27 05:20:26;;;;;;;3.17;1.03;;;24.10;99.90;;;;;;4995786;28;20178;-71
2023/12/27 05:22:53;;;;;;;2.13;0.77;;;25.20;99.90;;;;;;4996609;28;20175;-71
2023/12/27 05:25:20;;;;;;;3.83;0.90;;;26.10;99.90;;;;;;4997186;28;20608;-70
2023/12/27 05:27:47;;;;;;;2.60;1.00;;;26.20;99.90;;;;;;4997006;28;20217;-69
2023/12/27 05:30:16;;;;;;;2.03;0.60;;;26.20;99.90;;;;;;4996086;28;20182;-70
2023/12/27 05:32:43;;;;;;;3.43;1.00;;;26.40;99.90;;;;;;4995746;28;20210;-70
2023/12/27 05:35:10;;;;;;;9.40;1.03;;;26.60;99.90;;;;;;4995065;28;20170;-71
2023/12/27 05:37:38;;;;;;;1.20;0.87;;;26.20;99.90;;;;;;4995042;28;20182;-70
2023/12/27 05:40:06;;;;;;;4.40;1.27;;;26.20;99.90;;;;;;4995375;28;20179;-70
2023/12/27 05:42:33;;;;;;;3.10;1.30;;;25.80;99.90;;;;;;4994674;28;20185;-70
2023/12/27 05:45:00;;;;;;;2.63;1.23;;;25.80;99.90;;;;;;4994713;28;20179;-71
2023/12/27 05:47:27;;;;;;;2.67;1.07;;;25.60;99.90;;;;;;4995134;28;20171;-71
2023/12/27 05:49:55;;;;;;;3.83;0.70;;;25.20;99.90;;;;;;4995071;28;20278;-70
2023/12/27 05:52:22;;;;;;;5.27;1.07;;;24.90;99.90;;;;;;4994397;28;20302;-71
2023/12/27 05:54:49;;;;;;;4.33;1.10;;;24.80;99.90;;;;;;4994887;28;20229;-72
2023/12/27 05:57:17;;;;;;;2.90;1.13;;;24.80;99.90;;;;;;4994688;28;20723;-70
2023/12/27 05:59:45;;;;;;;6.10;1.20;;;24.60;99.90;;;;;;4994465;28;20179;-70
2023/12/27 06:02:12;;;;;;;3.33;1.10;;;24.50;99.90;;;;;;4993935;28;20186;-72
2023/12/27 06:04:41;;;;;;;2.97;1.00;;;24.50;99.90;;;;;;4994707;28;20575;-71
2023/12/27 06:07:08;;;;;;;1.97;0.90;;;24.60;99.90;;;;;;4993994;28;20189;-72
2023/12/27 06:09:35;;;;;;;3.13;1.10;;;24.40;99.90;;;;;;4975195;28;20215;-70
2023/12/27 06:12:03;;;;;;;2.20;0.80;;;24.30;99.90;;;;;;4985022;28;20252;-69
2023/12/27 06:14:30;;;;;;;1.43;0.73;;;24.40;99.90;;;;;;4993971;28;20262;-68
2023/12/27 06:16:57;;;;;;;4.67;1.10;;;24.40;99.90;;;;;;4994580;28;20232;-71
2023/12/27 06:19:25;;;;;;;2.50;1.20;;;24.40;99.90;;;;;;4994542;28;20182;-70
2023/12/27 06:21:52;;;;;;;2.00;1.07;;;24.40;99.90;;;;;;4993763;28;20216;-72
2023/12/27 06:24:20;;;;;;;3.83;1.37;;;24.50;99.90;;;;;;4994540;28;20273;-71
2023/12/27 06:26:47;;;;;;;5.77;0.73;;;24.60;99.90;;;;;;4994523;28;20197;-70
2023/12/27 06:29:14;;;;;;;2.70;0.80;;;24.80;99.90;;;;;;4993755;28;20631;-71
2023/12/27 06:31:42;;;;;;;3.87;1.00;;;24.80;99.90;;;;;;4994174;28;20313;-71
2023/12/27 06:34:09;;;;;;;2.17;0.80;;;25.10;99.90;;;;;;4994484;28;20539;-70
2023/12/27 06:36:36;;;;;;;3.40;1.27;;;25.20;99.90;;;;;;4994045;28;20182;-69
2023/12/27 06:39:06;;;;;;;2.23;1.30;;;25.30;99.90;;;;;;4993556;28;20197;-69
2023/12/27 06:41:36;;;;;;;2.07;1.00;;;25.20;99.90;;;;;;4976373;28;20751;-69
2023/12/27 06:44:04;;;;;;;2.67;0.80;;;24.90;99.90;;;;;;4990321;28;20195;-70
2023/12/27 06:46:31;;;;;;;4.30;1.13;;;24.90;99.90;;;;;;4994091;28;20226;-70
2023/12/27 06:48:58;;;;;;;2.13;1.00;;;24.60;99.90;;;;;;4993953;28;20240;-70
2023/12/27 06:51:25;;;;;;;4.23;1.10;;;24.60;99.90;;;;;;4993524;28;20273;-70
2023/12/27 06:53:53;;;;;;;3.20;1.40;;;24.70;99.90;;;;;;4993444;28;20183;-70
2023/12/27 06:56:20;;;;;;;2.30;0.93;;;24.90;99.90;;;;;;4993486;28;20338;-70
2023/12/27 06:58:47;;;;;;;3.53;1.17;;;25.00;99.90;;;;;;4993388;28;20175;-70
2023/12/27 07:01:17;;;;;;;1.13;0.87;;;25.40;99.90;;;;;;4993443;28;20218;-70
2023/12/27 07:03:45;;;;;;;1.10;0.70;;;25.80;99.90;;;;;;4993489;28;20667;-69
2023/12/27 07:06:12;;;;;;;2.57;0.80;;;25.90;99.90;;;;;;4993264;28;20246;-69
2023/12/27 07:08:40;;;;;;;0.77;0.70;;;26.10;99.90;;;;;;4993707;28;20218;-70
2023/12/27 07:11:07;;;;;;;7.03;0.93;;;26.00;99.90;;;;;;4993728;28;20189;-71
2023/12/27 07:13:34;;;;;;;2.03;0.80;;;26.00;99.90;;;;;;4993302;28;20198;-70
2023/12/27 07:16:02;;;;;;;1.93;0.70;;;26.20;99.90;;;;;;4993636;28;20275;-71
2023/12/27 07:18:29;;;;;;;0.50;0.50;;;26.50;99.90;;;;;;4993662;28;20229;-70
2023/12/27 07:20:57;;;;;;;1.77;0.80;;;26.60;99.90;;;;;;4993054;28;20548;-71
2023/12/27 07:23:25;;;;;;;2.07;0.83;;;26.50;99.90;;;;;;4975742;28;20190;-69
2023/12/27 07:25:52;;;;;;;5.70;1.27;;;26.50;99.90;;;;;;4993352;28;20186;-70
2023/12/27 07:28:20;;;;;;;3.47;0.97;;;26.10;99.90;;;;;;4975375;28;20214;-70
2023/12/27 07:30:48;;;;;;;1.07;0.63;;;26.10;99.90;;;;;;4993236;28;20179;-70
2023/12/27 07:33:15;;;;;;;2.63;1.00;;;26.30;99.90;;;;;;4992827;28;20192;-70
2023/12/27 07:35:43;;;;;;;2.90;0.90;;;26.10;99.90;;;;;;4992736;28;20175;-70
2023/12/27 07:38:11;;;;;;;1.20;0.87;;;25.90;99.90;;;;;;4993099;28;20251;-71
2023/12/27 07:40:38;;;;;;;0.90;0.60;;;25.50;99.90;;;;;;4993041;28;20201;-71
2023/12/27 07:43:06;;;;;;;3.90;0.60;;;25.20;99.90;;;;;;4992332;28;20191;-70
2023/12/27 07:45:33;;;;;;;1.47;0.50;;;25.10;99.90;;;;;;4992717;28;20185;-71
2023/12/27 07:48:01;;;;;;;2.53;0.60;;;25.00;99.90;;;;;;4974693;28;20236;-70
2023/12/27 07:50:28;;;;;;;1.00;0.43;;;24.80;99.90;;;;;;4992588;28;20209;-70
2023/12/27 07:52:55;;;;;;;1.67;0.83;;;24.70;99.90;;;;;;4992994;28;20298;-70
2023/12/27 07:55:23;;;;;;;0.93;0.50;;;24.60;99.90;;;;;;4992638;28;20183;-70
2023/12/27 07:57:50;;;;;;;0.80;0.50;;;24.50;99.90;;;;;;4992048;28;20695;-69
2023/12/27 08:00:18;;;;;;;0.77;0.63;;;24.60;99.90;;;;;;4992721;28;20209;-70
2023/12/27 08:02:45;;;;;;;1.33;0.60;;;24.50;99.90;;;;;;4993123;28;20198;-70
2023/12/27 08:05:12;;;;;;;3.83;0.57;;;24.50;99.90;;;;;;4992627;28;20178;-70
2023/12/27 08:07:40;;;;;;;0.93;0.60;;;24.50;99.90;;;;;;4993675;28;20182;-70
2023/12/27 08:10:08;;;;;;;2.80;0.47;;;24.50;99.90;;;;;;4991726;28;20187;-70
2023/12/27 08:12:35;;;;;;;0.90;0.60;;;24.50;99.90;;;;;;4993234;28;20268;-71
2023/12/27 08:15:03;;;;;;;1.90;0.40;;;24.40;99.90;;;;;;4983254;28;20185;-70
2023/12/27 08:17:30;;;;;;;0.73;0.33;;;24.40;99.90;;;;;;4992009;28;20182;-72
2023/12/27 08:19:57;;;;;;;1.60;0.77;;;24.40;99.90;;;;;;4974561;28;20186;-71
2023/12/27 08:22:24;;;;;;;1.17;0.57;;;24.40;99.90;;;;;;4991751;28;20182;-71
2023/12/27 08:24:52;;;;;;;1.20;0.50;;;24.40;99.90;;;;;;4992184;28;20182;-71
2023/12/27 08:27:19;;;;;;;1.07;0.60;;;24.40;99.90;;;;;;4992282;28;20273;-70
2023/12/27 08:29:46;;;;;;;2.50;0.87;;;24.40;99.90;;;;;;4991677;28;20218;-71
2023/12/27 08:32:14;;;;;;;6.23;0.87;;;24.50;99.90;;;;;;4991705;28;20202;-70
2023/12/27 08:34:41;;;;;;;2.23;0.73;;;24.60;99.90;;;;;;4991859;28;20317;-72
2023/12/27 08:37:08;;;;;;;2.40;0.90;;;24.80;99.90;;;;;;4991459;28;20182;-70
2023/12/27 08:39:35;;;;;;;3.13;1.07;;;24.80;99.90;;;;;;4991883;28;20183;-70
2023/12/27 08:42:03;;;;;;;3.30;1.13;;;24.70;99.90;;;;;;4991706;28;20652;-72
2023/12/27 08:44:31;;;;;;;2.10;1.50;;;24.60;99.90;;;;;;4981953;28;20214;-71
2023/12/27 08:46:58;;;;;;;2.20;0.90;;;24.40;99.90;;;;;;4991565;28;20593;-72
2023/12/27 08:49:25;;;;;;;1.87;0.83;;;24.40;99.90;;;;;;4991500;28;20711;-71
2023/12/27 08:51:52;;;;;;;3.20;0.80;;;24.20;99.90;;;;;;4990895;28;20306;-70
2023/12/27 08:54:20;;;;;;;1.17;0.60;;;24.10;99.90;;;;;;4991652;28;20281;-70
2023/12/27 08:56:48;;;;;;;2.73;0.80;;;24.00;99.90;;;;;;4989014;28;20222;-69
2023/12/27 08:59:15;;;;;;;5.83;1.00;;;23.90;99.90;;;;;;4991061;28;20338;-71
2023/12/27 09:01:42;;;;;;;3.27;0.63;;;23.80;99.90;;;;;;4992016;28;20187;-71
2023/12/27 09:04:10;;;;;;;3.07;0.93;;;23.60;99.90;;;;;;4991954;28;20191;-71
2023/12/27 09:06:37;;;;;;;4.43;0.87;;;23.60;99.90;;;;;;4991741;28;20174;-70
2023/12/27 09:09:04;;;;;;;1.03;0.80;;;23.50;99.90;;;;;;4992017;28;20305;-71
2023/12/27 09:11:32;;;;;;;2.90;1.10;;;23.40;99.90;;;;;;4991494;28;20182;-69
2023/12/27 09:13:59;;;;;;;1.40;0.90;;;23.30;99.90;;;;;;4991032;28;20187;-70
2023/12/27 09:16:27;;;;;;;3.37;1.17;;;23.20;99.90;;;;;;4992326;28;20516;-70
2023/12/27 09:18:54;;;;;;;3.70;1.17;;;23.20;99.90;;;;;;4992265;28;20186;-70
2023/12/27 09:21:22;;;;;;;2.73;0.80;;;23.10;99.90;;;;;;4991796;28;20186;-70
2023/12/27 09:23:49;;;;;;;2.50;0.87;;;23.00;99.90;;;;;;4992255;28;20179;-70
2023/12/27 09:26:17;;;;;;;2.20;1.40;;;23.00;99.90;;;;;;4992133;28;20200;-70
2023/12/27 09:28:45;;;;;;;3.07;1.07;;;22.80;99.90;;;;;;4991109;28;20217;-71
2023/12/27 09:31:12;;;;;;;2.07;1.20;;;22.70;99.90;;;;;;4991438;28;20182;-69
2023/12/27 09:33:42;;;;;;;5.57;1.57;;;22.60;99.90;;;;;;4992113;28;20174;-71
2023/12/27 09:36:10;;;;;;;4.50;1.90;;;22.40;99.90;;;;;;4992240;28;20194;-70
2023/12/27 09:38:38;;;;;;;2.47;1.40;;;22.20;99.90;;;;;;4995513;28;20209;-71
2023/12/27 09:41:06;;;;;;;2.57;1.13;;;22.10;99.90;;;;;;4977919;28;20563;-71
2023/12/27 09:43:34;;;;;;;2.07;1.07;;;21.90;99.90;;;;;;4994413;28;20191;-71
2023/12/27 09:46:03;;;;;;;2.33;1.07;;;21.80;99.90;;;;;;4995118;28;20241;-71
2023/12/27 09:48:33;;;;;;;4.27;1.20;;;21.70;99.90;;;;;;4995256;28;20309;-70
2023/12/27 09:51:01;;;;;;;3.80;1.20;;;21.60;99.90;;;;;;4994718;28;20265;-71
2023/12/27 09:53:28;;;;;;;1.73;1.07;;;21.50;99.90;;;;;;4995181;28;20525;-71
2023/12/27 09:55:56;;;;;;;3.03;1.03;;;21.40;99.90;;;;;;4995819;28;20182;-71
2023/12/27 09:58:30;;;;;;;1.30;0.90;;;21.40;99.90;;;;;;4995493;28;20309;-71
2023/12/27 10:01:01;;;;;;;2.23;1.00;;;21.40;99.90;;;;;;4996468;28;20189;-72
2023/12/27 10:03:41;;;;;;;2.27;1.13;;;21.30;99.90;;;;;;4996628;28;20193;-71
2023/12/27 10:06:21;;;;;;;5.27;1.57;;;21.20;99.90;;;;;;4996464;28;20190;-71
2023/12/27 10:08:49;;;;;;;3.53;1.43;;;21.20;99.90;;;;;;4996483;28;20210;-72
2023/12/27 10:11:18;;;;;;;10.43;1.67;;;21.30;99.90;;;;;;4995833;28;20183;-72
2023/12/27 10:13:47;;;;;;;2.70;1.60;;;21.50;99.90;;;;;;4978850;28;20265;-71
2023/12/27 10:16:15;;;;;;;6.17;2.10;;;21.60;99.90;;;;;;4996067;28;20183;-71
2023/12/27 10:18:46;;;;;;;4.70;1.77;;;21.60;99.90;;;;;;4995817;28;20193;-72
2023/12/27 10:21:15;;;;;;;3.67;1.70;;;21.60;99.90;;;;;;4996140;28;20670;-71
2023/12/27 10:23:42;;;;;;;4.20;1.53;;;21.50;99.90;;;;;;4996500;28;20206;-69
2023/12/27 10:26:09;;;;;;;4.70;1.47;;;21.50;99.90;;;;;;4996841;28;20269;-71
2023/12/27 10:28:37;;;;;;;4.40;1.60;;;21.50;99.90;;;;;;4997083;28;20211;-71
2023/12/27 10:31:07;;;;;;;4.73;1.77;;;21.50;99.90;;;;;;4996064;28;20643;-71
2023/12/27 10:33:43;;;;;;;3.87;1.47;;;21.50;99.90;;;;;;4995698;28;20241;-71
2023/12/27 10:36:10;;;;;;;5.13;1.77;;;21.50;99.90;;;;;;4995785;28;20240;-71
2023/12/27 10:38:40;;;;;;;7.17;1.80;;;21.40;99.90;;;;;;4978302;28;20187;-71
2023/12/27 10:41:08;;;;;;;5.40;2.23;;;21.50;99.90;;;;;;4978074;28;20187;-71
2023/12/27 10:43:35;;;;;;;8.30;2.23;;;21.40;99.90;;;;;;4995195;28;20326;-71
2023/12/27 10:46:09;;;;;;;4.83;2.10;;;21.40;99.90;;;;;;4965757;28;20187;-70
2023/12/27 10:48:40;;;;;;;5.27;2.43;;;21.40;99.90;;;;;;4992886;28;20225;-71
2023/12/27 10:51:09;;;;;;;6.33;2.43;;;21.40;99.90;;;;;;4993602;28;20198;-71
2023/12/27 10:53:37;;;;;;;8.93;2.43;;;21.60;99.90;;;;;;4993307;28;20193;-72
2023/12/27 10:56:04;;;;;;;6.33;2.77;;;21.60;99.90;;;;;;4993567;28;20183;-70
2023/12/27 10:58:33;;;;;;;3.07;1.90;;;21.60;99.90;;;;;;4993131;28;20235;-73
2023/12/27 11:01:01;;;;;;;6.20;1.80;;;21.70;99.90;;;;;;4992037;28;20289;-71
2023/12/27 11:03:31;;;;;;;3.50;1.50;;;21.50;99.90;;;;;;4993603;28;20190;-70
2023/12/27 11:05:59;;;;;;;3.27;1.60;;;21.40;99.90;;;;;;4993167;28;20820;-71
2023/12/27 11:08:32;;;;;;;5.77;1.60;;;21.30;99.90;;;;;;4991974;28;20685;-72
2023/12/27 11:11:04;;;;;;;5.37;1.70;;;21.20;99.90;;;;;;4990860;28;20182;-72
2023/12/27 11:13:35;;;;;;;3.10;1.27;;;21.20;99.90;;;;;;4993321;28;20191;-71
2023/12/27 11:16:03;;;;;;;3.63;1.80;;;21.10;99.90;;;;;;4992677;28;20198;-71
2023/12/27 11:18:32;;;;;;;3.90;1.70;;;21.20;99.90;;;;;;4974423;28;20224;-71
2023/12/27 11:21:00;;;;;;;4.10;1.33;;;21.20;99.90;;;;;;4988076;28;20186;-72
2023/12/27 11:23:28;;;;;;;2.57;1.30;;;21.10;99.90;;;;;;4993369;28;20683;-71
2023/12/27 11:25:59;;;;;;;3.87;1.90;;;21.00;99.90;;;;;;4995431;28;20183;-72
2023/12/27 11:28:27;;;;;;;3.47;1.43;;;21.00;99.90;;;;;;4996077;28;20224;-71
2023/12/27 11:30:55;;;;;;;5.03;1.57;;;21.00;99.90;;;;;;4996687;28;20185;-70
2023/12/27 11:33:24;;;;;;;3.70;2.00;;;20.90;99.90;;;;;;4996045;28;20201;-70
2023/12/27 11:35:52;;;;;;;4.70;1.70;;;20.70;99.90;;;;;;4994100;28;20206;-71
2023/12/27 11:38:25;;;;;;;3.60;1.77;;;20.60;99.90;;;;;;4992892;28;20674;-71
2023/12/27 11:40:56;;;;;;;2.13;1.50;;;20.50;99.90;;;;;;4993168;28;20236;-71
2023/12/27 11:43:26;;;;;;;2.27;1.70;;;20.60;99.90;;;;;;4993334;28;20190;-70
2023/12/27 11:46:10;;;;;;;3.27;1.47;;;20.60;99.90;;;;;;4993264;28;20201;-71
2023/12/27 11:48:38;;;;;;;3.53;1.67;;;20.50;99.90;;;;;;4993279;28;20699;-71
2023/12/27 11:51:38;;;;;;;4.17;1.90;;;20.50;99.90;;;;;;4992900;28;20175;-71
2023/12/27 11:54:07;;;;;;;5.97;2.10;;;20.40;99.90;;;;;;4978069;28;20564;-71
2023/12/27 11:56:37;;;;;;;6.20;1.93;;;20.30;99.90;;;;;;4992111;28;20257;-72
2023/12/27 11:59:06;;;;;;;3.20;1.70;;;20.20;99.90;;;;;;4990417;28;20195;-71
2023/12/27 12:01:39;;;;;;;4.47;1.80;;;20.10;99.90;;;;;;4992168;28;20230;-71
2023/12/27 12:04:39;;;;;;;9.23;2.00;;;20.00;99.90;;;;;;4992326;28;20190;-73
2023/12/27 12:07:22;;;;;;;2.10;1.70;;;19.90;99.90;;;;;;4991302;28;20724;-71
2023/12/27 12:09:49;;;;;;;3.30;1.60;;;19.90;99.90;;;;;;4991183;28;20214;-70
2023/12/27 12:12:18;;;;;;;4.17;1.90;;;19.80;99.90;;;;;;4991204;28;20204;-72
2023/12/27 12:14:47;;;;;;;5.33;1.80;;;19.70;99.90;;;;;;4990688;28;20761;-71
2023/12/27 12:17:15;;;;;;;4.70;2.20;;;19.80;99.90;;;;;;4991395;28;20644;-70
2023/12/27 12:19:43;;;;;;;8.13;2.47;;;19.70;99.90;;;;;;4993185;28;20180;-70
2023/12/27 12:22:16;;;;;;;4.37;2.10;;;19.70;99.90;;;;;;4993192;28;20775;-71
2023/12/27 12:24:47;;;;;;;4.30;2.20;;;19.60;99.90;;;;;;4993373;28;20189;-71
2023/12/27 12:27:24;;;;;;;3.70;2.03;;;19.60;99.90;;;;;;4993464;28;20194;-71
2023/12/27 12:29:54;;;;;;;3.63;2.00;;;19.50;99.90;;;;;;4992858;28;20228;-71
2023/12/27 12:32:21;;;;;;;5.17;2.33;;;19.50;99.90;;;;;;4993459;28;20182;-71
2023/12/27 12:34:49;;;;;;;5.07;2.10;;;19.40;99.90;;;;;;4993635;28;20213;-70
2023/12/27 12:37:17;;;;;;;6.23;2.53;;;19.40;99.90;;;;;;4975743;28;20273;-71
2023/12/27 12:39:45;;;;;;;5.80;2.57;;;19.30;99.90;;;;;;4992530;28;20220;-71
2023/12/27 12:42:13;;;;;;;3.87;2.60;;;19.30;99.90;;;;;;4993249;28;20202;-72
2023/12/27 12:44:41;;;;;;;4.00;2.40;;;19.30;99.90;;;;;;4992699;28;20253;-72
2023/12/27 12:47:09;;;;;;;4.23;2.30;;;19.40;99.90;;;;;;4993779;28;20184;-71
2023/12/27 12:49:37;;;;;;;5.43;2.60;;;19.40;99.90;;;;;;4992877;28;20210;-71
2023/12/27 12:52:09;;;;;;;5.60;2.33;;;19.40;99.90;;;;;;4975049;28;20190;-71